Archival Weather

Bob Hope

Burbank, California (KBUR)

Report from: Monday, January 29, 2024 5:53 PM PST
Current time: Monday, June 24, 2024 1:42 AM PDT

Current weather – Weather history – Daily summaries
Weather forecast

Temperature22.2°C (72.0°F)
Dew point2.2°C (36.0°F)
Winds 4 kts (2.1 m/s, 4.6 mph) Northwest (310°)
Visibility10 mi. (16.1 km)
Clouds Sky clear
Altimeter30.06 in.Hg (1018 mB)
Relative humidity27 %
Density altitude823 ft. (251 m)
Sea-level pressure101.7 kPa (1017 mB, 30.03 in.Hg)
Remarks Automated weather observing station with precipitation discriminator
Flight conditions Visual Meteorological Conditions
Raw dataKBUR 300153Z 31004KT 10SM CLR 22/02 A3006 RMK AO2 SLP170 T02220022
An error has occurred. This application may no longer respond until reloaded. Reload 🗙